Time;durP1;ratioP1;P1;durP2;ratioP2;P2;SDS_P1;SDS_P2;PMS_P1;PMS_P2;Temp;Humidity;BMP_temperature;BMP_pressure;BME280_temperature;BME280_humidity;BME280_pressure;Samples;Min_cycle;Max_cycle;Signal;HPM_P1;HPM_P2
2021/03/11 00:00:39;;;;;;;1.38;1.05;;;8.10;99.90;;;;;;5074883;28;20246;-75
2021/03/11 00:03:05;;;;;;;1.65;0.85;;;8.10;99.90;;;;;;5074782;28;20170;-75
2021/03/11 00:05:31;;;;;;;1.92;1.52;;;8.10;99.90;;;;;;5074444;28;20175;-75
2021/03/11 00:07:58;;;;;;;5.07;1.77;;;8.10;99.90;;;;;;5074263;28;20630;-75
2021/03/11 00:10:24;;;;;;;4.00;1.98;;;8.10;99.90;;;;;;5073826;28;20169;-75
2021/03/11 00:12:50;;;;;;;1.05;1.00;;;8.20;99.90;;;;;;5074418;28;20525;-76
2021/03/11 00:15:18;;;;;;;1.02;1.02;;;8.20;99.90;;;;;;5074133;28;20170;-75
2021/03/11 00:17:45;;;;;;;1.52;1.10;;;8.20;99.90;;;;;;5073026;28;20205;-75
2021/03/11 00:20:13;;;;;;;1.52;1.42;;;8.30;99.90;;;;;;5074503;28;20202;-75
2021/03/11 00:22:40;;;;;;;1.02;1.02;;;8.20;99.90;;;;;;5074442;28;20163;-76
2021/03/11 00:25:10;;;;;;;1.30;1.17;;;8.20;99.90;;;;;;5074234;28;20186;-76
2021/03/11 00:27:36;;;;;;;1.33;1.30;;;8.30;99.90;;;;;;5075069;28;20273;-76
2021/03/11 00:30:04;;;;;;;1.05;1.05;;;8.30;99.90;;;;;;5074693;28;20158;-77
2021/03/11 00:32:30;;;;;;;2.58;1.85;;;8.30;99.90;;;;;;5074365;28;20174;-75
2021/03/11 00:34:55;;;;;;;1.38;1.38;;;8.30;99.90;;;;;;5072830;28;20212;-76
2021/03/11 00:37:21;;;;;;;1.20;1.05;;;8.30;99.90;;;;;;5073244;28;20183;-76
2021/03/11 00:39:47;;;;;;;1.33;1.27;;;8.40;99.90;;;;;;5054976;28;20235;-77
2021/03/11 00:42:12;;;;;;;0.93;0.93;;;8.50;99.90;;;;;;5052981;28;20167;-76
2021/03/11 00:44:38;;;;;;;0.95;0.95;;;8.40;99.90;;;;;;5053323;28;20159;-76
2021/03/11 00:47:07;;;;;;;1.05;1.05;;;8.30;99.90;;;;;;5053523;28;20554;-75
2021/03/11 00:49:34;;;;;;;0.88;0.88;;;8.40;99.90;;;;;;5053544;28;20254;-75
2021/03/11 00:52:00;;;;;;;0.65;0.65;;;8.50;99.90;;;;;;5053429;28;20534;-74
2021/03/11 00:54:27;;;;;;;1.90;0.80;;;8.60;99.90;;;;;;5053442;28;20162;-76
2021/03/11 00:56:52;;;;;;;2.53;1.67;;;8.60;99.90;;;;;;5053433;28;20198;-75
2021/03/11 00:59:18;;;;;;;11.15;2.38;;;8.60;99.90;;;;;;5053160;28;20558;-75
2021/03/11 01:01:43;;;;;;;1.60;0.95;;;8.80;99.90;;;;;;5053213;28;20171;-75
2021/03/11 01:04:09;;;;;;;2.00;1.42;;;8.80;99.90;;;;;;5053271;28;20563;-75
2021/03/11 01:06:34;;;;;;;1.10;1.10;;;8.80;99.90;;;;;;5053089;28;20182;-75
2021/03/11 01:09:00;;;;;;;2.33;1.02;;;8.80;99.90;;;;;;5053077;28;20176;-76
2021/03/11 01:11:26;;;;;;;1.25;1.23;;;8.60;99.90;;;;;;5035597;28;20168;-76
2021/03/11 01:13:51;;;;;;;2.60;1.40;;;8.70;99.90;;;;;;5053323;28;20198;-75
2021/03/11 01:16:17;;;;;;;0.60;0.60;;;8.80;99.90;;;;;;5053205;28;20191;-75
2021/03/11 01:18:42;;;;;;;3.55;1.40;;;8.70;99.90;;;;;;5052730;28;20248;-76
2021/03/11 01:21:08;;;;;;;2.13;2.03;;;8.50;99.90;;;;;;5053939;28;20168;-74
2021/03/11 01:23:33;;;;;;;5.25;1.63;;;8.50;99.90;;;;;;5039178;28;20229;-75
2021/03/11 01:25:59;;;;;;;0.68;0.68;;;8.50;99.90;;;;;;5056829;28;20698;-75
2021/03/11 01:28:24;;;;;;;0.88;0.88;;;8.50;99.90;;;;;;5056771;28;20228;-75
2021/03/11 01:30:50;;;;;;;0.93;0.93;;;8.60;99.90;;;;;;5056732;28;20213;-74
2021/03/11 01:33:16;;;;;;;3.30;2.20;;;8.70;99.90;;;;;;5056682;28;20245;-75
2021/03/11 01:35:41;;;;;;;1.17;1.10;;;8.70;99.90;;;;;;5056455;28;20181;-75
2021/03/11 01:38:07;;;;;;;1.08;0.93;;;8.70;99.90;;;;;;5056534;28;20731;-75
2021/03/11 01:40:33;;;;;;;0.93;0.93;;;8.80;99.90;;;;;;5061528;28;20277;-74
2021/03/11 01:43:00;;;;;;;5.80;2.33;;;8.70;99.90;;;;;;5060257;28;20239;-76
2021/03/11 01:45:26;;;;;;;0.68;0.68;;;8.80;99.90;;;;;;5059263;28;20199;-75
2021/03/11 01:47:51;;;;;;;5.35;1.42;;;8.80;99.90;;;;;;5056285;28;20272;-74
2021/03/11 01:50:17;;;;;;;2.08;1.98;;;8.90;99.90;;;;;;5056392;28;20156;-75
2021/03/11 01:52:43;;;;;;;0.63;0.60;;;8.90;99.90;;;;;;5055889;28;20548;-75
2021/03/11 01:55:09;;;;;;;2.08;1.83;;;8.90;99.90;;;;;;5055849;28;20167;-75
2021/03/11 01:57:36;;;;;;;2.08;1.98;;;8.90;99.90;;;;;;5055804;28;20191;-75
2021/03/11 02:00:10;;;;;;;1.75;1.65;;;9.00;99.90;;;;;;5037896;28;20531;-75
2021/03/11 02:02:36;;;;;;;10.65;1.77;;;9.10;99.90;;;;;;5055769;28;20151;-76
2021/03/11 02:05:07;;;;;;;0.90;0.90;;;9.00;99.90;;;;;;5055659;28;20164;-76
2021/03/11 02:07:33;;;;;;;3.05;2.67;;;8.80;99.90;;;;;;5055458;28;20179;-75
2021/03/11 02:09:58;;;;;;;1.15;1.15;;;8.70;99.90;;;;;;5055477;28;20163;-76
2021/03/11 02:12:43;;;;;;;0.95;0.95;;;8.70;99.90;;;;;;5055591;28;20182;-75
2021/03/11 02:15:08;;;;;;;1.45;0.80;;;8.70;99.90;;;;;;5055400;28;20174;-75
2021/03/11 02:17:51;;;;;;;1.50;1.48;;;8.70;99.90;;;;;;5055323;28;20187;-75
2021/03/11 02:20:46;;;;;;;3.15;1.52;;;8.80;99.90;;;;;;5055397;28;20191;-75
2021/03/11 02:23:47;;;;;;;1.08;1.08;;;8.80;99.90;;;;;;5055262;28;20195;-75
2021/03/11 02:26:29;;;;;;;5.18;3.22;;;8.70;99.90;;;;;;4974288;28;20199;-75
2021/03/11 02:29:11;;;;;;;3.75;1.85;;;8.70;99.90;;;;;;5047707;28;20171;-76
2021/03/11 02:31:39;;;;;;;1.52;1.42;;;8.70;99.90;;;;;;5054919;28;20199;-75
2021/03/11 02:34:20;;;;;;;3.20;3.00;;;8.70;99.90;;;;;;5055143;28;20166;-76
2021/03/11 02:36:49;;;;;;;1.08;0.98;;;8.70;99.90;;;;;;5058120;28;20260;-76
2021/03/11 02:39:16;;;;;;;3.20;1.30;;;8.70;99.90;;;;;;5055529;28;20227;-76
2021/03/11 02:41:43;;;;;;;3.63;2.00;;;8.80;99.90;;;;;;5056355;28;20528;-76
2021/03/11 02:44:11;;;;;;;3.08;1.52;;;8.90;99.90;;;;;;5057158;28;20155;-76
2021/03/11 02:46:38;;;;;;;6.32;1.63;;;8.80;99.90;;;;;;5054719;28;20654;-75
2021/03/11 02:49:04;;;;;;;3.10;1.85;;;8.90;99.90;;;;;;5054719;28;20176;-75
2021/03/11 02:51:31;;;;;;;4.35;2.53;;;8.90;99.90;;;;;;5054776;28;20187;-75
2021/03/11 02:53:58;;;;;;;1.75;1.65;;;8.90;99.90;;;;;;5036982;28;20195;-75
2021/03/11 02:56:25;;;;;;;0.73;0.73;;;8.90;99.90;;;;;;5054788;28;20241;-75
2021/03/11 02:58:52;;;;;;;3.55;2.65;;;8.90;99.90;;;;;;5054608;28;20278;-75
2021/03/11 03:01:19;;;;;;;4.30;2.03;;;8.80;99.90;;;;;;5054731;28;20251;-75
2021/03/11 03:03:46;;;;;;;2.45;2.17;;;8.90;99.90;;;;;;5054836;28;20156;-76
2021/03/11 03:06:13;;;;;;;2.17;2.05;;;9.00;99.90;;;;;;5054510;28;20220;-75
2021/03/11 03:08:42;;;;;;;0.63;0.63;;;9.00;99.90;;;;;;5054507;28;20182;-76
2021/03/11 03:11:08;;;;;;;0.73;0.73;;;9.00;99.90;;;;;;5054428;28;20170;-75
2021/03/11 03:13:35;;;;;;;3.85;1.60;;;9.00;99.90;;;;;;5054519;28;20167;-75
2021/03/11 03:16:01;;;;;;;1.25;1.13;;;9.00;99.90;;;;;;5036383;28;20635;-75
2021/03/11 03:18:29;;;;;;;3.13;2.70;;;9.00;99.90;;;;;;5054423;28;20166;-75
2021/03/11 03:20:56;;;;;;;3.25;1.42;;;9.00;99.90;;;;;;5054540;28;20164;-75
2021/03/11 03:23:22;;;;;;;3.08;1.95;;;9.10;99.90;;;;;;5054179;28;20225;-75
2021/03/11 03:25:48;;;;;;;1.33;1.23;;;9.20;99.90;;;;;;5054271;28;20167;-75
2021/03/11 03:28:15;;;;;;;1.08;1.08;;;9.20;99.90;;;;;;5053968;28;20538;-76
2021/03/11 03:30:42;;;;;;;1.40;1.30;;;9.10;99.90;;;;;;5054007;28;20164;-76
2021/03/11 03:33:07;;;;;;;1.77;1.02;;;9.20;99.90;;;;;;5053970;28;20167;-75
2021/03/11 03:35:35;;;;;;;1.45;1.40;;;9.20;99.90;;;;;;5036008;28;20179;-75
2021/03/11 03:38:00;;;;;;;1.88;0.70;;;9.30;99.90;;;;;;5053816;28;20321;-75
2021/03/11 03:40:26;;;;;;;0.65;0.65;;;9.30;99.90;;;;;;5053841;28;20281;-76
2021/03/11 03:43:10;;;;;;;1.08;1.08;;;9.30;99.90;;;;;;5053783;28;20170;-76
2021/03/11 03:45:40;;;;;;;4.47;2.78;;;9.20;99.90;;;;;;5053456;28;20171;-75
2021/03/11 03:48:10;;;;;;;1.65;1.40;;;9.30;99.90;;;;;;5053964;28;20187;-76
2021/03/11 03:50:37;;;;;;;1.40;1.30;;;9.20;99.90;;;;;;5036062;28;20496;-75
2021/03/11 03:53:08;;;;;;;1.67;1.58;;;9.30;99.90;;;;;;5053599;28;20201;-75
2021/03/11 03:55:36;;;;;;;4.28;1.98;;;9.40;99.90;;;;;;5053487;28;20251;-75
2021/03/11 03:58:02;;;;;;;1.27;1.17;;;9.50;99.90;;;;;;5053426;28;20190;-76
2021/03/11 04:00:28;;;;;;;0.90;0.90;;;9.30;99.90;;;;;;5053507;28;20550;-75
2021/03/11 04:02:55;;;;;;;0.93;0.93;;;9.40;99.90;;;;;;5053385;28;20167;-75
2021/03/11 04:05:22;;;;;;;1.38;1.27;;;9.40;99.90;;;;;;5053468;28;20250;-76
2021/03/11 04:07:50;;;;;;;0.73;0.73;;;9.40;99.90;;;;;;5053143;28;20198;-76
2021/03/11 04:10:16;;;;;;;1.10;1.02;;;9.50;99.90;;;;;;5054559;28;20162;-76
2021/03/11 04:12:42;;;;;;;1.60;1.50;;;9.50;99.90;;;;;;5061484;28;20646;-76
2021/03/11 04:15:09;;;;;;;1.27;1.23;;;9.50;99.90;;;;;;5060080;28;20171;-75
2021/03/11 04:17:35;;;;;;;1.15;1.05;;;9.50;99.90;;;;;;5057295;28;20221;-75
2021/03/11 04:20:04;;;;;;;1.00;1.00;;;9.50;99.90;;;;;;5053405;28;20205;-76
2021/03/11 04:22:31;;;;;;;2.00;1.38;;;9.50;99.90;;;;;;5053357;28;20545;-76
2021/03/11 04:24:56;;;;;;;1.13;1.13;;;9.60;99.90;;;;;;5053383;28;20163;-75
2021/03/11 04:27:22;;;;;;;1.80;1.48;;;9.60;99.90;;;;;;5053437;28;20654;-77
2021/03/11 04:29:49;;;;;;;2.20;1.08;;;9.60;99.90;;;;;;5055528;28;20578;-76
2021/03/11 04:32:15;;;;;;;2.10;1.17;;;9.60;99.90;;;;;;5054870;28;20163;-76
2021/03/11 04:34:40;;;;;;;0.88;0.88;;;9.80;99.90;;;;;;5054142;28;20179;-76
2021/03/11 04:37:06;;;;;;;1.08;1.08;;;9.80;99.90;;;;;;5053868;28;20193;-76
2021/03/11 04:39:32;;;;;;;6.80;1.52;;;9.90;99.90;;;;;;5053663;28;20229;-76
2021/03/11 04:41:59;;;;;;;1.83;1.73;;;10.00;99.90;;;;;;5036115;28;20221;-77
2021/03/11 04:44:26;;;;;;;2.22;2.08;;;10.00;99.90;;;;;;5053775;28;20494;-76
2021/03/11 04:46:53;;;;;;;1.00;0.95;;;10.00;99.90;;;;;;5053343;28;20198;-76
2021/03/11 04:49:21;;;;;;;1.00;0.90;;;10.10;99.90;;;;;;5053775;28;20163;-76
2021/03/11 04:51:47;;;;;;;0.38;0.38;;;10.10;99.90;;;;;;5053180;28;20174;-76
2021/03/11 04:54:13;;;;;;;1.60;0.80;;;10.20;99.90;;;;;;5052864;28;20158;-76
2021/03/11 04:56:42;;;;;;;1.58;1.48;;;10.10;99.90;;;;;;5056332;28;20669;-76
2021/03/11 04:59:10;;;;;;;1.05;0.95;;;10.20;99.90;;;;;;5056838;28;20256;-76
2021/03/11 05:01:40;;;;;;;2.38;1.15;;;10.20;99.90;;;;;;5056876;28;20562;-76
2021/03/11 05:04:07;;;;;;;3.83;1.05;;;10.30;99.90;;;;;;5056801;28;20156;-75
2021/03/11 05:06:33;;;;;;;1.60;0.93;;;10.40;99.90;;;;;;5056827;28;20646;-75
2021/03/11 05:08:58;;;;;;;2.75;1.27;;;10.40;99.90;;;;;;5056682;28;20169;-76
2021/03/11 05:11:24;;;;;;;1.13;1.05;;;10.40;99.90;;;;;;5056791;28;20495;-76
2021/03/11 05:13:50;;;;;;;0.82;0.80;;;10.40;99.90;;;;;;5056716;28;20167;-77
2021/03/11 05:16:16;;;;;;;0.43;0.43;;;10.50;99.90;;;;;;5038672;28;20632;-76
2021/03/11 05:18:42;;;;;;;0.60;0.60;;;10.60;99.90;;;;;;5056742;28;20245;-76
2021/03/11 05:21:08;;;;;;;1.25;1.20;;;10.70;99.90;;;;;;5056511;28;20164;-76
2021/03/11 05:23:33;;;;;;;1.00;1.00;;;10.70;99.90;;;;;;5056656;28;20159;-77
2021/03/11 05:25:59;;;;;;;0.70;0.70;;;10.80;99.90;;;;;;5056593;28;20171;-76
2021/03/11 05:28:25;;;;;;;2.42;1.27;;;10.90;99.90;;;;;;5056504;28;20201;-76
2021/03/11 05:30:50;;;;;;;0.40;0.40;;;10.80;99.90;;;;;;5056351;28;20209;-77
2021/03/11 05:33:16;;;;;;;0.90;0.90;;;10.80;99.90;;;;;;5056315;28;20253;-76
2021/03/11 05:35:42;;;;;;;2.20;1.70;;;10.80;99.90;;;;;;5056210;28;20200;-76
2021/03/11 05:38:08;;;;;;;2.08;1.10;;;10.80;99.90;;;;;;5056113;28;20686;-76
2021/03/11 05:40:35;;;;;;;0.77;0.77;;;10.70;99.90;;;;;;5056337;28;20221;-78
2021/03/11 05:43:04;;;;;;;7.30;1.75;;;10.70;99.90;;;;;;5056028;28;20178;-74
2021/03/11 05:45:30;;;;;;;1.23;1.23;;;10.70;99.90;;;;;;5056010;28;20301;-75
2021/03/11 05:47:56;;;;;;;0.65;0.65;;;10.80;99.90;;;;;;5055883;28;20270;-75
2021/03/11 05:50:22;;;;;;;0.80;0.80;;;10.80;99.90;;;;;;5038080;28;20160;-75
2021/03/11 05:52:48;;;;;;;0.40;0.40;;;10.80;99.90;;;;;;5037978;28;20168;-75
2021/03/11 05:55:14;;;;;;;0.68;0.68;;;10.80;99.90;;;;;;5055879;28;20177;-75
2021/03/11 05:57:44;;;;;;;0.65;0.65;;;10.80;99.90;;;;;;5055865;28;20554;-75
2021/03/11 06:00:13;;;;;;;0.32;0.32;;;11.00;99.90;;;;;;5055886;28;20544;-76
2021/03/11 06:02:42;;;;;;;0.45;0.45;;;10.90;99.90;;;;;;5055768;28;20167;-77
2021/03/11 06:05:09;;;;;;;0.60;0.57;;;10.80;99.90;;;;;;5056088;28;20170;-76
2021/03/11 06:07:36;;;;;;;1.15;1.05;;;10.80;99.90;;;;;;5054937;28;20202;-77
2021/03/11 06:10:03;;;;;;;1.08;0.80;;;10.90;99.90;;;;;;5055691;28;20202;-76
2021/03/11 06:12:30;;;;;;;0.50;0.32;;;10.90;99.90;;;;;;5055772;28;20171;-76
2021/03/11 06:15:03;;;;;;;0.50;0.50;;;10.90;99.90;;;;;;5055454;28;20746;-76
2021/03/11 06:17:32;;;;;;;0.70;0.70;;;10.90;99.90;;;;;;5055483;28;20521;-77
2021/03/11 06:19:58;;;;;;;1.98;1.30;;;11.00;99.90;;;;;;5055389;28;20202;-76
2021/03/11 06:22:24;;;;;;;0.30;0.30;;;11.00;99.90;;;;;;5055464;28;20166;-77
2021/03/11 06:24:50;;;;;;;0.57;0.25;;;11.10;99.90;;;;;;5055478;28;20167;-76
2021/03/11 06:27:16;;;;;;;0.93;0.88;;;11.10;99.90;;;;;;5037465;28;20277;-76
2021/03/11 06:29:41;;;;;;;0.20;0.20;;;11.20;99.90;;;;;;5055601;28;20605;-76
2021/03/11 06:32:08;;;;;;;0.50;0.50;;;11.10;99.90;;;;;;5037647;28;20515;-77
2021/03/11 06:34:41;;;;;;;4.63;1.05;;;11.20;99.90;;;;;;5055536;28;20163;-76
2021/03/11 06:37:07;;;;;;;0.30;0.30;;;11.20;99.90;;;;;;5054849;28;20198;-75
2021/03/11 06:39:35;;;;;;;0.15;0.15;;;11.20;99.90;;;;;;5054660;28;20689;-75
2021/03/11 06:42:00;;;;;;;0.35;0.25;;;11.20;99.90;;;;;;5055021;28;20622;-75
2021/03/11 06:44:33;;;;;;;0.65;0.65;;;11.30;99.90;;;;;;5058166;28;20205;-75
2021/03/11 06:47:01;;;;;;;0.43;0.43;;;11.40;99.90;;;;;;5059692;28;20194;-75
2021/03/11 06:49:26;;;;;;;0.20;0.20;;;11.40;99.90;;;;;;5043005;28;20160;-76
2021/03/11 06:52:14;;;;;;;1.15;1.10;;;11.40;99.90;;;;;;5037664;28;20184;-75
2021/03/11 06:54:53;;;;;;;0.30;0.30;;;11.30;99.90;;;;;;5036837;28;20206;-76
2021/03/11 06:57:35;;;;;;;0.10;0.10;;;11.30;99.90;;;;;;5037024;28;20344;-75
2021/03/11 07:00:21;;;;;;;0.10;0.10;;;11.40;99.90;;;;;;5054322;28;20677;-76
2021/03/11 07:02:57;;;;;;;1.80;1.20;;;11.50;99.90;;;;;;5054845;28;20209;-75
2021/03/11 07:05:24;;;;;;;0.20;0.20;;;11.40;99.90;;;;;;5054665;28;20202;-75
2021/03/11 07:08:03;;;;;;;0.88;0.65;;;11.50;99.90;;;;;;5054199;28;20226;-74
2021/03/11 07:10:29;;;;;;;0.22;0.22;;;11.50;99.90;;;;;;5054398;28;20636;-76
2021/03/11 07:12:58;;;;;;;0.35;0.35;;;11.60;99.90;;;;;;5054078;28;20510;-76
2021/03/11 07:15:26;;;;;;;0.28;0.28;;;11.60;99.90;;;;;;5054377;28;20159;-76
2021/03/11 07:17:52;;;;;;;5.18;0.93;;;11.70;99.90;;;;;;5053855;28;20878;-77
2021/03/11 07:20:25;;;;;;;0.40;0.40;;;11.70;99.90;;;;;;5053260;28;20282;-77
2021/03/11 07:23:10;;;;;;;13.55;1.17;;;11.70;99.90;;;;;;5054380;28;20170;-77
2021/03/11 07:25:41;;;;;;;0.25;0.25;;;11.80;99.90;;;;;;5054072;28;20703;-76
2021/03/11 07:28:09;;;;;;;0.30;0.30;;;11.70;99.90;;;;;;5054035;28;20754;-77
2021/03/11 07:30:53;;;;;;;0.63;0.63;;;11.70;99.90;;;;;;5053804;28;20171;-76
2021/03/11 07:33:20;;;;;;;0.30;0.30;;;11.80;99.90;;;;;;5054101;28;20609;-75
2021/03/11 07:35:48;;;;;;;0.10;0.10;;;11.80;99.90;;;;;;5054128;28;20247;-76
2021/03/11 07:38:22;;;;;;;0.20;0.20;;;11.80;99.90;;;;;;5053641;28;20287;-76
2021/03/11 07:40:48;;;;;;;0.40;0.40;;;11.80;99.90;;;;;;5053951;28;20673;-76
2021/03/11 07:43:14;;;;;;;3.17;1.67;;;11.80;99.90;;;;;;5054036;28;20167;-77
2021/03/11 07:45:41;;;;;;;0.20;0.20;;;11.80;99.90;;;;;;5055487;28;20167;-76
2021/03/11 07:48:09;;;;;;;0.73;0.73;;;11.80;99.90;;;;;;5054058;28;20179;-77
2021/03/11 07:50:35;;;;;;;1.30;0.93;;;11.80;99.90;;;;;;5054436;28;20201;-77
2021/03/11 07:53:04;;;;;;;0.35;0.35;;;11.80;99.90;;;;;;5054159;28;20170;-78
2021/03/11 07:55:30;;;;;;;0.73;0.73;;;12.00;99.90;;;;;;5034770;28;20179;-75
2021/03/11 07:58:21;;;;;;;21.73;0.95;;;12.10;99.90;;;;;;5032950;28;20200;-75
2021/03/11 08:00:47;;;;;;;1.45;1.20;;;12.10;99.90;;;;;;5050931;28;20221;-76
2021/03/11 08:03:23;;;;;;;0.38;0.38;;;12.10;99.90;;;;;;5035230;28;20627;-75
2021/03/11 08:05:50;;;;;;;1.10;1.10;;;12.10;99.90;;;;;;5053316;28;20292;-75
2021/03/11 08:08:29;;;;;;;1.13;1.13;;;12.30;99.90;;;;;;5052972;28;20673;-76
2021/03/11 08:10:57;;;;;;;1.23;1.23;;;12.30;99.90;;;;;;5053508;28;20163;-76
2021/03/11 08:13:35;;;;;;;0.25;0.25;;;12.30;99.90;;;;;;5052778;28;20167;-75
2021/03/11 08:16:24;;;;;;;0.77;0.77;;;12.30;99.90;;;;;;5052955;28;20522;-77
2021/03/11 08:18:52;;;;;;;4.65;1.98;;;12.40;99.90;;;;;;5052782;28;20202;-76
2021/03/11 08:21:24;;;;;;;10.15;0.63;;;12.40;99.90;;;;;;5052951;28;20166;-74
2021/03/11 08:23:54;;;;;;;1.05;1.05;;;12.50;99.90;;;;;;5048475;28;20156;-75
2021/03/11 08:26:38;;;;;;;5.28;1.58;;;12.50;99.90;;;;;;5013420;28;20532;-75
2021/03/11 08:29:18;;;;;;;1.20;0.60;;;12.50;99.90;;;;;;5013116;28;20277;-75
2021/03/11 08:31:45;;;;;;;0.93;0.80;;;12.40;99.90;;;;;;5031050;28;20190;-76
2021/03/11 08:34:32;;;;;;;7.00;1.88;;;12.50;99.90;;;;;;5031666;28;20522;-75
2021/03/11 08:37:20;;;;;;;0.65;0.65;;;12.40;99.90;;;;;;5032219;28;20313;-76
2021/03/11 08:39:47;;;;;;;9.60;0.43;;;12.40;99.90;;;;;;5030851;28;20231;-76
2021/03/11 08:42:47;;;;;;;1.48;1.38;;;12.40;99.90;;;;;;5032240;28;20278;-76
2021/03/11 08:45:48;;;;;;;2.17;1.27;;;12.40;99.90;;;;;;5038545;28;20175;-76
2021/03/11 08:48:16;;;;;;;0.68;0.68;;;12.40;99.90;;;;;;5040372;28;20616;-75
2021/03/11 08:50:44;;;;;;;2.53;0.70;;;12.40;99.90;;;;;;5013913;28;20194;-76
2021/03/11 08:53:09;;;;;;;1.70;1.60;;;12.40;99.90;;;;;;5014512;28;20176;-76
2021/03/11 08:55:44;;;;;;;6.25;0.77;;;12.60;99.90;;;;;;5031772;28;20194;-76
2021/03/11 08:58:27;;;;;;;2.40;1.75;;;12.80;99.90;;;;;;5033499;28;20282;-75
2021/03/11 09:00:56;;;;;;;3.03;1.15;;;12.90;99.90;;;;;;5036338;28;20237;-77
2021/03/11 09:03:36;;;;;;;0.40;0.40;;;13.00;99.90;;;;;;5044242;28;20188;-77
2021/03/11 09:06:04;;;;;;;5.57;0.40;;;13.00;99.90;;;;;;5031479;28;20172;-75
2021/03/11 09:08:30;;;;;;;2.00;1.48;;;13.00;99.90;;;;;;5030335;28;20267;-77
2021/03/11 09:11:10;;;;;;;8.07;2.67;;;13.00;99.90;;;;;;5031442;28;20160;-75
2021/03/11 09:13:38;;;;;;;14.23;0.63;;;13.00;99.90;;;;;;5031726;28;20619;-75
2021/03/11 09:16:04;;;;;;;5.10;2.97;;;12.90;99.90;;;;;;5038813;28;20156;-76
2021/03/11 09:18:29;;;;;;;10.43;2.08;;;12.80;99.90;;;;;;5024432;28;20168;-76
2021/03/11 09:20:58;;;;;;;0.52;0.52;;;12.80;99.90;;;;;;5040694;28;20183;-78
2021/03/11 09:23:41;;;;;;;0.70;0.70;;;12.80;99.90;;;;;;5032025;28;20171;-76
2021/03/11 09:26:30;;;;;;;0.43;0.43;;;12.80;99.90;;;;;;5031563;28;20515;-76
2021/03/11 09:28:59;;;;;;;6.70;0.90;;;12.90;99.90;;;;;;5027153;28;20206;-77
2021/03/11 09:31:27;;;;;;;9.50;1.05;;;13.00;99.90;;;;;;5050707;28;20168;-76
2021/03/11 09:33:56;;;;;;;1.45;0.85;;;13.00;99.90;;;;;;5036700;28;20741;-76
2021/03/11 09:36:23;;;;;;;7.05;2.15;;;13.00;99.90;;;;;;5031234;28;20196;-77
2021/03/11 09:38:51;;;;;;;0.68;0.68;;;13.00;99.90;;;;;;5030670;28;20902;-77
2021/03/11 09:41:24;;;;;;;0.52;0.50;;;13.10;99.90;;;;;;5050954;28;20158;-76
2021/03/11 09:43:50;;;;;;;0.75;0.60;;;13.30;99.90;;;;;;5055130;28;20242;-76
2021/03/11 09:46:17;;;;;;;2.03;1.35;;;13.50;99.90;;;;;;5055038;28;20294;-76
2021/03/11 09:48:47;;;;;;;0.20;0.20;;;13.40;99.90;;;;;;5054833;28;20178;-76
2021/03/11 09:51:15;;;;;;;9.93;2.90;;;13.50;99.90;;;;;;5074187;28;20171;-76
2021/03/11 09:53:50;;;;;;;0.50;0.50;;;13.40;99.90;;;;;;5074797;28;20185;-75
2021/03/11 09:56:23;;;;;;;1.20;1.10;;;13.50;99.90;;;;;;5074852;28;20231;-76
2021/03/11 09:58:53;;;;;;;0.60;0.60;;;13.50;99.90;;;;;;5047759;28;20171;-76
2021/03/11 10:01:42;;;;;;;9.27;2.58;;;13.50;99.90;;;;;;5034949;28;20157;-76
2021/03/11 10:04:16;;;;;;;1.35;0.77;;;13.60;99.90;;;;;;5054010;28;20155;-77
2021/03/11 10:07:02;;;;;;;5.32;0.50;;;13.60;99.90;;;;;;5055408;28;20190;-77
2021/03/11 10:09:39;;;;;;;1.35;0.95;;;13.70;99.90;;;;;;5055154;28;20175;-75
2021/03/11 10:12:05;;;;;;;0.75;0.75;;;13.60;99.90;;;;;;5054498;28;20519;-77
2021/03/11 10:14:31;;;;;;;0.70;0.57;;;13.60;99.90;;;;;;5055685;28;20242;-75
2021/03/11 10:16:58;;;;;;;4.80;1.40;;;13.80;99.90;;;;;;5063583;28;20590;-75
2021/03/11 10:19:27;;;;;;;0.70;0.70;;;13.80;99.90;;;;;;5057066;28;20294;-76
2021/03/11 10:21:57;;;;;;;0.40;0.40;;;13.70;99.90;;;;;;5055454;28;20167;-76
2021/03/11 10:24:42;;;;;;;0.63;0.63;;;13.50;99.90;;;;;;5054231;28;20527;-75
2021/03/11 10:27:23;;;;;;;2.58;1.20;;;13.40;99.90;;;;;;5055695;28;20213;-75
2021/03/11 10:30:24;;;;;;;0.88;0.50;;;13.40;99.90;;;;;;5036147;28;20195;-77
2021/03/11 10:32:58;;;;;;;0.95;0.95;;;13.10;99.90;;;;;;5042655;28;20178;-76
2021/03/11 10:35:27;;;;;;;1.40;1.33;;;13.00;99.90;;;;;;5054700;28;20178;-76
2021/03/11 10:37:53;;;;;;;0.38;0.38;;;13.00;99.90;;;;;;5052170;28;20249;-76
2021/03/11 10:40:24;;;;;;;2.33;0.95;;;13.10;99.90;;;;;;5034957;28;20674;-78
2021/03/11 10:42:54;;;;;;;3.92;1.30;;;13.00;99.90;;;;;;5034919;28;20194;-76
2021/03/11 10:45:36;;;;;;;5.47;1.50;;;13.00;99.90;;;;;;5034810;28;20168;-78
2021/03/11 10:48:07;;;;;;;0.25;0.25;;;13.10;99.90;;;;;;5034328;28;20191;-78
2021/03/11 10:50:43;;;;;;;0.65;0.55;;;13.20;99.90;;;;;;5017075;28;20168;-78
2021/03/11 10:53:09;;;;;;;0.82;0.80;;;13.30;99.90;;;;;;5034700;28;20210;-77
2021/03/11 10:55:42;;;;;;;0.60;0.60;;;13.40;99.90;;;;;;5031033;28;20199;-77
2021/03/11 10:58:19;;;;;;;0.22;0.22;;;13.50;99.90;;;;;;5016408;28;20230;-78
2021/03/11 11:00:45;;;;;;;0.73;0.73;;;13.50;99.90;;;;;;5033855;28;20199;-77
2021/03/11 11:03:10;;;;;;;0.98;0.98;;;13.60;99.90;;;;;;5035756;28;20180;-79
2021/03/11 11:05:36;;;;;;;0.50;0.50;;;13.70;99.90;;;;;;5023732;28;20577;-76
2021/03/11 11:08:05;;;;;;;1.10;1.05;;;13.90;99.90;;;;;;5014938;28;20227;-76
2021/03/11 11:10:32;;;;;;;14.63;0.70;;;13.80;99.90;;;;;;5030505;28;20674;-77
2021/03/11 11:12:58;;;;;;;5.53;0.50;;;13.80;99.90;;;;;;5033978;28;20164;-76
2021/03/11 11:15:27;;;;;;;1.05;0.80;;;13.90;99.90;;;;;;5034415;28;20168;-76
2021/03/11 11:17:53;;;;;;;16.98;0.88;;;14.00;99.90;;;;;;5034161;28;20208;-75
2021/03/11 11:20:18;;;;;;;0.40;0.40;;;14.10;99.90;;;;;;5030901;28;20622;-79
2021/03/11 11:22:45;;;;;;;4.70;1.55;;;14.00;99.90;;;;;;5025544;28;20172;-77
2021/03/11 11:25:11;;;;;;;0.70;0.70;;;14.00;99.90;;;;;;5016775;28;20164;-77
2021/03/11 11:27:37;;;;;;;8.13;0.70;;;14.00;99.90;;;;;;5034422;28;20198;-76
2021/03/11 11:30:05;;;;;;;1.13;0.95;;;14.00;99.90;;;;;;5034087;28;20171;-75
2021/03/11 11:32:31;;;;;;;0.40;0.40;;;14.10;99.90;;;;;;5034472;28;20655;-76
2021/03/11 11:34:57;;;;;;;1.27;0.63;;;14.10;99.90;;;;;;5016419;28;20254;-77
2021/03/11 11:37:22;;;;;;;0.25;0.25;;;14.20;99.90;;;;;;5034759;28;20184;-75
2021/03/11 11:39:49;;;;;;;2.40;1.23;;;14.50;99.90;;;;;;5033849;28;20310;-75
2021/03/11 11:42:16;;;;;;;17.17;2.25;;;14.40;99.90;;;;;;5033815;28;20203;-75
2021/03/11 11:44:43;;;;;;;0.68;0.68;;;14.40;99.90;;;;;;5033734;28;20160;-74
2021/03/11 11:47:10;;;;;;;0.20;0.20;;;14.30;99.90;;;;;;5035021;28;20198;-75
2021/03/11 11:49:36;;;;;;;0.77;0.68;;;14.40;99.90;;;;;;5033401;28;20171;-74
2021/03/11 11:52:02;;;;;;;5.88;0.45;;;14.40;99.90;;;;;;5033971;28;20195;-74
2021/03/11 11:54:28;;;;;;;0.25;0.25;;;14.50;99.90;;;;;;5048480;23;20228;-74
2021/03/11 11:56:54;;;;;;;0.75;0.75;;;14.60;99.90;;;;;;5031544;28;20200;-75
2021/03/11 11:59:20;;;;;;;0.40;0.40;;;14.80;99.90;;;;;;5027574;28;20292;-75
2021/03/11 12:01:46;;;;;;;3.42;2.05;;;14.70;99.90;;;;;;5013511;28;20188;-74
2021/03/11 12:04:13;;;;;;;0.32;0.32;;;14.90;99.90;;;;;;5012830;28;20175;-75
2021/03/11 12:06:39;;;;;;;5.07;1.27;;;14.80;99.90;;;;;;5024419;28;20196;-74
2021/03/11 12:09:05;;;;;;;0.20;0.20;;;14.40;99.90;;;;;;5007407;28;20176;-74
2021/03/11 12:11:31;;;;;;;0.30;0.30;;;14.10;99.90;;;;;;5013157;28;20183;-75
2021/03/11 12:13:57;;;;;;;2.33;1.33;;;14.10;99.90;;;;;;5013336;28;20153;-75
2021/03/11 12:16:22;;;;;;;4.18;0.73;;;14.20;99.90;;;;;;5023270;28;20196;-74
2021/03/11 12:18:48;;;;;;;0.70;0.65;;;14.30;99.90;;;;;;5030723;28;20184;-74
2021/03/11 12:21:14;;;;;;;0.55;0.55;;;14.50;99.90;;;;;;5013229;28;20188;-74
2021/03/11 12:23:40;;;;;;;0.38;0.38;;;14.60;99.90;;;;;;5013277;28;20199;-75
2021/03/11 12:26:55;;;;;;;2.17;0.57;;;14.50;99.90;;;;;;5020509;28;20186;-76
2021/03/11 12:29:20;;;;;;;1.90;0.68;;;14.20;99.90;;;;;;5012762;28;20183;-74
2021/03/11 12:31:47;;;;;;;21.95;1.70;;;14.00;99.90;;;;;;5020633;28;20179;-75
2021/03/11 12:34:13;;;;;;;0.13;0.13;;;13.90;99.90;;;;;;5032152;28;20188;-74
2021/03/11 12:36:39;;;;;;;0.50;0.50;;;14.00;99.90;;;;;;5019656;28;20188;-75
2021/03/11 12:39:06;;;;;;;1.35;1.00;;;13.90;99.90;;;;;;5028805;28;20683;-80
2021/03/11 12:41:33;;;;;;;5.57;1.15;;;13.90;99.90;;;;;;5012992;28;20248;-75
2021/03/11 12:43:59;;;;;;;16.55;2.65;;;14.10;99.90;;;;;;5012875;28;20581;-76
2021/03/11 12:46:25;;;;;;;21.88;1.48;;;14.10;99.90;;;;;;5023202;28;20203;-77
2021/03/11 12:48:51;;;;;;;3.30;0.52;;;14.10;99.90;;;;;;5012208;28;20175;-76
2021/03/11 12:51:19;;;;;;;4.13;1.35;;;14.10;99.90;;;;;;5012842;28;20176;-75
2021/03/11 12:53:44;;;;;;;0.30;0.30;;;13.90;99.90;;;;;;5012105;28;20171;-76
2021/03/11 12:56:12;;;;;;;1.55;1.45;;;13.90;99.90;;;;;;5000190;28;20181;-75
2021/03/11 12:58:39;;;;;;;7.93;0.75;;;14.00;99.90;;;;;;5010568;28;20179;-75
2021/03/11 13:01:23;;;;;;;3.20;1.17;;;14.10;99.90;;;;;;5012668;28;20225;-76